Time;durP1;ratioP1;P1;durP2;ratioP2;P2;SDS_P1;SDS_P2;PMS_P1;PMS_P2;Temp;Humidity;BMP_temperature;BMP_pressure;BME280_temperature;BME280_humidity;BME280_pressure;Samples;Min_cycle;Max_cycle;Signal;HPM_P1;HPM_P2
2023/02/01 00:00:36;;;;;;;12.20;6.80;;;6.70;99.90;;;;;;4896342;29;20980;-75
2023/02/01 00:03:05;;;;;;;11.63;6.80;;;6.70;99.90;;;;;;4880076;29;20273;-75
2023/02/01 00:05:31;;;;;;;10.77;7.07;;;6.70;99.90;;;;;;4896285;29;20198;-75
2023/02/01 00:07:59;;;;;;;15.53;6.73;;;6.70;99.90;;;;;;4896157;29;20698;-76
2023/02/01 00:10:25;;;;;;;11.77;6.75;;;6.70;99.90;;;;;;4880745;29;20498;-75
2023/02/01 00:12:53;;;;;;;11.60;6.63;;;6.70;99.90;;;;;;4880621;29;20717;-75
2023/02/01 00:15:24;;;;;;;13.27;6.60;;;6.70;99.90;;;;;;4896057;29;20577;-75
2023/02/01 00:17:58;;;;;;;12.13;6.83;;;6.70;99.90;;;;;;4895297;29;21087;-75
2023/02/01 00:20:24;;;;;;;14.10;6.37;;;6.70;99.90;;;;;;4897137;29;20985;-75
2023/02/01 00:22:50;;;;;;;11.63;6.80;;;6.70;99.90;;;;;;4880251;29;20447;-75
2023/02/01 00:25:16;;;;;;;8.57;5.70;;;6.70;99.90;;;;;;4895640;29;20506;-75
2023/02/01 00:27:42;;;;;;;15.73;7.40;;;6.70;99.90;;;;;;4896285;29;20475;-75
2023/02/01 00:30:11;;;;;;;13.50;7.07;;;6.70;99.90;;;;;;4896475;29;20957;-75
2023/02/01 00:32:37;;;;;;;11.33;6.27;;;6.70;99.90;;;;;;4880177;29;20468;-75
2023/02/01 00:35:08;;;;;;;15.93;5.93;;;6.70;99.90;;;;;;4896636;29;20478;-75
2023/02/01 00:37:39;;;;;;;12.23;6.22;;;6.70;99.90;;;;;;4921642;29;20215;-75
2023/02/01 00:40:13;;;;;;;13.70;5.80;;;6.70;99.90;;;;;;4880351;29;20262;-75
2023/02/01 00:42:42;;;;;;;13.57;6.80;;;6.60;99.90;;;;;;4895100;29;20453;-75
2023/02/01 00:45:15;;;;;;;14.30;6.30;;;6.70;99.90;;;;;;4895851;29;20450;-77
2023/02/01 00:47:43;;;;;;;12.30;6.45;;;6.70;99.90;;;;;;4895606;29;20439;-75
2023/02/01 00:50:14;;;;;;;10.63;6.50;;;6.70;99.90;;;;;;4897678;29;20172;-75
2023/02/01 00:52:40;;;;;;;13.63;5.57;;;6.70;99.90;;;;;;4900667;29;20452;-75
2023/02/01 00:55:09;;;;;;;12.90;7.03;;;6.70;99.90;;;;;;4898909;29;20991;-75
2023/02/01 00:57:35;;;;;;;11.93;6.20;;;6.70;99.90;;;;;;4900608;29;20526;-75
2023/02/01 01:00:00;;;;;;;10.27;6.90;;;6.70;99.90;;;;;;4899074;29;20201;-75
2023/02/01 01:02:29;;;;;;;13.90;7.00;;;6.70;99.90;;;;;;4883855;29;20527;-75
2023/02/01 01:04:57;;;;;;;23.50;6.78;;;6.70;99.90;;;;;;4898805;29;20550;-75
2023/02/01 01:07:23;;;;;;;8.93;6.32;;;6.70;99.90;;;;;;4899252;29;20198;-75
2023/02/01 01:09:49;;;;;;;18.13;7.80;;;6.70;99.90;;;;;;4899515;29;20647;-75
2023/02/01 01:12:19;;;;;;;14.60;8.33;;;6.70;99.90;;;;;;4898792;29;21000;-75
2023/02/01 01:14:45;;;;;;;9.07;6.47;;;6.70;99.90;;;;;;4899338;29;20454;-75
2023/02/01 01:17:11;;;;;;;16.52;7.28;;;6.70;99.90;;;;;;4900446;29;20419;-75
2023/02/01 01:19:42;;;;;;;10.85;8.20;;;6.70;99.90;;;;;;4899847;29;20655;-75
2023/02/01 01:22:10;;;;;;;11.20;6.83;;;6.70;99.90;;;;;;4868046;29;20197;-75
2023/02/01 01:24:39;;;;;;;12.60;6.80;;;6.70;99.90;;;;;;4899151;29;20455;-75
2023/02/01 01:27:05;;;;;;;11.67;6.97;;;6.70;99.90;;;;;;4903574;29;20191;-75
2023/02/01 01:29:31;;;;;;;11.93;7.65;;;6.70;99.90;;;;;;4899227;29;20466;-75
2023/02/01 01:31:57;;;;;;;14.60;7.15;;;6.70;99.90;;;;;;4899976;29;20175;-75
2023/02/01 01:34:23;;;;;;;11.10;7.87;;;6.70;99.90;;;;;;4883559;29;20178;-75
2023/02/01 01:36:49;;;;;;;11.55;7.10;;;6.70;99.90;;;;;;4882638;29;20222;-76
2023/02/01 01:39:18;;;;;;;12.63;6.33;;;6.70;99.90;;;;;;4898616;29;20207;-75
2023/02/01 01:41:46;;;;;;;13.05;7.53;;;6.70;99.90;;;;;;4898670;29;20431;-75
2023/02/01 01:45:17;;;;;;;14.07;6.83;;;6.70;99.90;;;;;;4898774;29;20174;-75
2023/02/01 01:47:50;;;;;;;14.83;6.77;;;6.70;99.90;;;;;;4844990;29;20515;-75
2023/02/01 01:50:22;;;;;;;11.10;6.47;;;6.70;99.90;;;;;;4828552;29;20536;-75
2023/02/01 01:52:51;;;;;;;9.27;6.30;;;6.70;99.90;;;;;;4829572;29;20286;-75
2023/02/01 01:55:19;;;;;;;13.43;6.47;;;6.70;99.90;;;;;;4826132;29;20461;-75
2023/02/01 01:57:54;;;;;;;9.73;5.90;;;6.70;99.90;;;;;;4834790;29;20552;-75
2023/02/01 02:00:21;;;;;;;11.60;6.40;;;6.70;99.90;;;;;;4819944;29;20548;-75
2023/02/01 02:03:09;;;;;;;13.70;5.83;;;6.60;99.90;;;;;;4840079;29;20602;-76
2023/02/01 02:05:35;;;;;;;13.77;5.50;;;6.70;99.90;;;;;;4859912;29;20466;-75
2023/02/01 02:08:06;;;;;;;13.00;5.95;;;6.70;99.90;;;;;;4844403;29;21250;-75
2023/02/01 02:13:22;;;;;;;12.27;6.50;;;6.60;99.90;;;;;;4856347;29;20614;-75
2023/02/01 02:16:09;;;;;;;13.32;5.35;;;6.60;99.90;;;;;;4855911;29;20456;-75
2023/02/01 02:19:08;;;;;;;13.83;5.63;;;6.60;99.90;;;;;;4853028;29;20226;-75
2023/02/01 02:21:43;;;;;;;6.47;4.40;;;6.60;99.90;;;;;;4897362;29;20623;-75
2023/02/01 02:24:49;;;;;;;10.18;5.50;;;6.60;99.90;;;;;;4898196;29;20170;-75
2023/02/01 02:27:24;;;;;;;10.07;4.73;;;6.60;99.90;;;;;;4881581;29;20210;-75
2023/02/01 02:30:02;;;;;;;10.90;4.70;;;6.60;99.90;;;;;;4898673;29;20502;-75
2023/02/01 02:32:33;;;;;;;13.98;5.38;;;6.60;99.90;;;;;;4897893;29;20195;-75
2023/02/01 02:35:29;;;;;;;11.70;5.50;;;6.60;99.90;;;;;;4882302;29;20206;-75
2023/02/01 02:38:18;;;;;;;13.13;4.77;;;6.60;99.90;;;;;;4880353;29;20481;-76
2023/02/01 02:41:09;;;;;;;9.95;4.95;;;6.60;99.90;;;;;;4887041;29;20494;-75
2023/02/01 02:49:34;;;;;;;11.23;5.27;;;6.50;99.90;;;;;;4898180;29;20210;-75
2023/02/01 02:54:56;;;;;;;12.77;3.92;;;6.50;99.90;;;;;;4897533;29;20431;-76
2023/02/01 03:05:51;;;;;;;12.18;4.22;;;6.50;99.90;;;;;;4912782;29;20502;-75
2023/02/01 03:08:26;;;;;;;11.82;4.35;;;6.50;99.90;;;;;;4891591;29;20207;-75
2023/02/01 03:11:09;;;;;;;11.05;4.40;;;6.50;99.90;;;;;;4897330;29;20210;-75
2023/02/01 03:14:02;;;;;;;12.77;4.05;;;6.50;99.90;;;;;;4888659;29;20215;-75
2023/02/01 03:16:45;;;;;;;7.85;4.15;;;6.50;99.90;;;;;;4881100;29;20306;-75
2023/02/01 03:19:18;;;;;;;15.30;5.35;;;6.50;99.90;;;;;;4881534;29;20233;-75
2023/02/01 03:21:48;;;;;;;11.30;4.30;;;6.50;99.90;;;;;;4896564;29;20170;-75
2023/02/01 03:24:32;;;;;;;19.15;5.47;;;6.50;99.90;;;;;;4881475;29;20198;-75
2023/02/01 03:27:33;;;;;;;20.70;4.55;;;6.50;99.90;;;;;;4896322;29;20208;-75
2023/02/01 03:30:10;;;;;;;9.02;4.28;;;6.50;99.90;;;;;;4863512;29;20206;-75
2023/02/01 03:35:45;;;;;;;9.25;4.10;;;6.50;99.90;;;;;;4880768;29;20215;-75
2023/02/01 03:38:23;;;;;;;12.82;3.80;;;6.50;99.90;;;;;;4927607;29;20745;-75
2023/02/01 03:41:00;;;;;;;12.55;4.40;;;6.50;99.90;;;;;;4879907;29;20210;-76
2023/02/01 03:43:32;;;;;;;12.15;3.75;;;6.50;99.90;;;;;;4896545;29;20679;-75
2023/02/01 03:46:03;;;;;;;13.05;4.45;;;6.50;99.90;;;;;;4897863;29;20280;-75
2023/02/01 03:48:32;;;;;;;9.77;4.45;;;6.40;99.90;;;;;;4896360;29;20517;-76
2023/02/01 03:51:04;;;;;;;16.75;3.95;;;6.40;99.90;;;;;;4880895;29;20186;-75
2023/02/01 03:53:32;;;;;;;9.75;3.80;;;6.50;99.90;;;;;;4914371;29;20190;-76
2023/02/01 03:55:58;;;;;;;16.30;4.05;;;6.50;99.90;;;;;;4928121;29;20245;-75
2023/02/01 03:58:27;;;;;;;12.00;4.45;;;6.50;99.90;;;;;;4898246;29;20218;-75
2023/02/01 04:00:56;;;;;;;13.93;4.40;;;6.50;99.90;;;;;;4915234;29;20213;-76
2023/02/01 04:03:24;;;;;;;10.35;4.03;;;6.50;99.90;;;;;;4897585;29;20171;-75
2023/02/01 04:05:51;;;;;;;15.15;5.30;;;6.50;99.90;;;;;;4880255;29;20218;-75
2023/02/01 04:08:23;;;;;;;10.98;4.20;;;6.50;99.90;;;;;;4896195;29;20641;-75
2023/02/01 04:10:49;;;;;;;17.23;4.50;;;6.50;99.90;;;;;;4895618;29;20213;-75
2023/02/01 04:13:17;;;;;;;16.08;4.60;;;6.50;99.90;;;;;;4880517;29;21109;-75
2023/02/01 04:15:46;;;;;;;12.43;3.88;;;6.50;99.90;;;;;;4896594;29;20319;-75
2023/02/01 04:18:12;;;;;;;7.97;4.05;;;6.50;99.90;;;;;;4907288;29;20226;-75
2023/02/01 04:20:38;;;;;;;18.40;4.45;;;6.50;99.90;;;;;;4920548;29;20195;-75
2023/02/01 04:23:03;;;;;;;18.53;4.50;;;6.50;99.90;;;;;;4905830;29;20206;-75
2023/02/01 04:25:30;;;;;;;10.33;3.63;;;6.50;99.90;;;;;;4895998;29;20463;-75
2023/02/01 04:27:59;;;;;;;10.27;4.30;;;6.50;99.90;;;;;;4879876;29;20630;-75
2023/02/01 04:30:25;;;;;;;17.80;3.70;;;6.50;99.90;;;;;;4894544;29;20215;-75
2023/02/01 04:32:51;;;;;;;10.32;3.97;;;6.50;99.90;;;;;;4895631;29;20197;-75
2023/02/01 04:35:19;;;;;;;13.60;4.30;;;6.50;99.90;;;;;;4894888;29;20744;-75
2023/02/01 04:37:48;;;;;;;9.98;3.58;;;6.50;99.90;;;;;;4880217;29;20845;-75
2023/02/01 04:40:16;;;;;;;12.77;3.90;;;6.50;99.90;;;;;;4896313;29;20175;-75
2023/02/01 04:42:42;;;;;;;15.57;4.22;;;6.50;99.90;;;;;;4911460;29;20414;-75
2023/02/01 04:45:11;;;;;;;10.23;3.75;;;6.50;99.90;;;;;;4902617;29;20285;-75
2023/02/01 04:47:37;;;;;;;10.97;4.07;;;6.50;99.90;;;;;;4895406;29;20193;-75
2023/02/01 04:50:03;;;;;;;15.80;3.97;;;6.50;99.90;;;;;;4878893;29;20460;-75
2023/02/01 04:52:34;;;;;;;10.60;4.37;;;6.50;99.90;;;;;;4879814;29;20718;-75
2023/02/01 04:55:03;;;;;;;10.07;3.85;;;6.50;99.90;;;;;;4896736;29;20455;-75
2023/02/01 04:57:29;;;;;;;19.35;3.85;;;6.50;99.90;;;;;;4895932;29;20236;-75
2023/02/01 04:59:57;;;;;;;9.57;3.70;;;6.50;99.90;;;;;;4895610;29;20721;-75
2023/02/01 05:02:23;;;;;;;9.00;3.53;;;6.50;99.90;;;;;;4894973;29;20639;-75
2023/02/01 05:04:50;;;;;;;12.73;4.00;;;6.50;99.90;;;;;;4895646;29;20364;-75
2023/02/01 05:07:18;;;;;;;11.63;3.55;;;6.50;99.90;;;;;;4894248;29;20223;-75
2023/02/01 05:09:44;;;;;;;14.70;3.97;;;6.50;99.90;;;;;;4896792;29;20656;-75
2023/02/01 05:14:55;;;;;;;11.63;4.40;;;6.50;99.90;;;;;;4896592;29;20704;-75
2023/02/01 05:17:21;;;;;;;13.10;4.20;;;6.50;99.90;;;;;;4879788;29;20202;-75
2023/02/01 05:19:51;;;;;;;12.47;3.90;;;6.50;99.90;;;;;;4896123;29;21019;-75
2023/02/01 05:22:17;;;;;;;12.40;3.60;;;6.50;99.90;;;;;;4879759;29;20988;-75
2023/02/01 05:24:44;;;;;;;12.83;4.60;;;6.50;99.90;;;;;;4894629;29;20451;-75
2023/02/01 05:27:13;;;;;;;9.35;3.35;;;6.50;99.90;;;;;;4895199;29;20446;-75
2023/02/01 05:29:39;;;;;;;16.30;4.03;;;6.40;99.90;;;;;;4892487;29;20195;-73
2023/02/01 05:32:07;;;;;;;12.93;3.90;;;6.50;99.90;;;;;;4887777;29;20457;-74
2023/02/01 05:34:33;;;;;;;20.20;3.47;;;6.40;99.90;;;;;;4895539;29;20451;-73
2023/02/01 05:36:59;;;;;;;7.75;3.28;;;6.40;99.90;;;;;;4897268;29;20652;-75
2023/02/01 05:39:25;;;;;;;18.97;4.37;;;6.40;99.90;;;;;;4882587;29;20258;-75
2023/02/01 05:41:53;;;;;;;9.25;3.85;;;6.40;99.90;;;;;;4899795;29;20527;-73
2023/02/01 05:44:19;;;;;;;18.07;3.87;;;6.40;99.90;;;;;;4899459;29;20546;-75
2023/02/01 05:46:52;;;;;;;9.90;3.55;;;6.40;99.90;;;;;;4898709;29;20805;-73
2023/02/01 05:49:18;;;;;;;14.32;3.70;;;6.40;99.90;;;;;;4898054;29;20203;-73
2023/02/01 05:51:44;;;;;;;13.67;4.13;;;6.50;99.90;;;;;;4898660;29;20222;-73
2023/02/01 05:54:10;;;;;;;18.30;4.70;;;6.40;99.90;;;;;;4899072;29;20545;-73
2023/02/01 05:56:36;;;;;;;13.88;4.22;;;6.40;99.90;;;;;;4867659;29;20216;-73
2023/02/01 05:59:05;;;;;;;10.30;4.37;;;6.40;99.90;;;;;;4881493;29;20225;-73
2023/02/01 06:01:31;;;;;;;13.30;4.50;;;6.40;99.90;;;;;;4906700;29;20558;-73
2023/02/01 06:03:59;;;;;;;12.43;3.80;;;6.40;99.90;;;;;;4897824;29;20421;-73
2023/02/01 06:06:25;;;;;;;14.47;3.60;;;6.40;99.90;;;;;;4882652;29;20980;-74
2023/02/01 06:08:56;;;;;;;13.20;3.70;;;6.40;99.90;;;;;;4901084;29;20945;-74
2023/02/01 06:11:22;;;;;;;11.20;3.33;;;6.40;99.90;;;;;;4901361;29;20465;-74
2023/02/01 06:13:50;;;;;;;13.40;4.88;;;6.40;99.90;;;;;;4902266;29;20455;-74
2023/02/01 06:16:21;;;;;;;18.73;3.63;;;6.40;99.90;;;;;;4899679;29;20290;-77
2023/02/01 06:18:49;;;;;;;16.23;4.43;;;6.40;99.90;;;;;;4898330;29;20549;-76
2023/02/01 06:21:23;;;;;;;15.73;3.83;;;6.40;99.90;;;;;;4899369;29;20179;-75
2023/02/01 06:23:53;;;;;;;16.20;4.75;;;6.40;99.90;;;;;;4898338;29;20202;-74
2023/02/01 06:26:20;;;;;;;10.55;3.40;;;6.40;99.90;;;;;;4896848;29;20223;-75
2023/02/01 06:28:49;;;;;;;13.30;3.72;;;6.40;99.90;;;;;;4897944;29;20195;-75
2023/02/01 06:31:15;;;;;;;14.15;3.22;;;6.40;99.90;;;;;;4898876;29;20174;-76
2023/02/01 06:33:43;;;;;;;11.48;4.20;;;6.40;99.90;;;;;;4897929;29;20172;-76
2023/02/01 06:36:15;;;;;;;9.10;3.22;;;6.40;99.90;;;;;;4882798;29;20212;-76
2023/02/01 06:38:41;;;;;;;16.17;5.75;;;6.40;99.90;;;;;;4898691;29;20221;-75
2023/02/01 06:41:10;;;;;;;16.85;3.90;;;6.40;99.90;;;;;;4897822;29;20192;-75
2023/02/01 06:43:37;;;;;;;11.20;3.92;;;6.40;99.90;;;;;;4896553;29;20187;-75
2023/02/01 06:46:06;;;;;;;12.80;3.90;;;6.40;99.90;;;;;;4896761;29;20652;-75
2023/02/01 06:48:33;;;;;;;9.50;3.47;;;6.40;99.90;;;;;;4896021;29;20676;-75
2023/02/01 06:50:59;;;;;;;9.75;4.20;;;6.40;99.90;;;;;;4898116;29;20270;-75
2023/02/01 06:53:30;;;;;;;8.50;3.55;;;6.40;99.90;;;;;;4881200;29;20199;-75
2023/02/01 06:56:02;;;;;;;13.93;4.67;;;6.40;99.90;;;;;;4895818;29;20226;-76
2023/02/01 06:58:32;;;;;;;13.70;4.70;;;6.40;99.90;;;;;;4874509;29;20480;-75
2023/02/01 07:01:10;;;;;;;8.05;3.40;;;6.40;99.90;;;;;;4892700;29;20434;-75
2023/02/01 07:03:36;;;;;;;11.32;3.65;;;6.40;99.90;;;;;;4897166;29;20679;-75
2023/02/01 07:06:06;;;;;;;16.15;3.60;;;6.40;99.90;;;;;;4912317;29;20247;-75
2023/02/01 07:08:37;;;;;;;13.90;3.92;;;6.40;99.90;;;;;;4897183;29;20219;-75
2023/02/01 07:11:09;;;;;;;16.87;4.20;;;6.40;99.90;;;;;;4897022;29;20674;-75
2023/02/01 07:13:38;;;;;;;14.77;4.32;;;6.40;99.90;;;;;;4881655;29;20804;-76
2023/02/01 07:16:07;;;;;;;12.13;4.30;;;6.40;99.90;;;;;;4879474;29;20207;-75
2023/02/01 07:18:37;;;;;;;11.87;4.10;;;6.40;99.90;;;;;;4893564;29;20215;-76
2023/02/01 07:21:08;;;;;;;17.93;4.87;;;6.40;99.90;;;;;;4888968;29;20494;-75
2023/02/01 07:23:35;;;;;;;16.73;3.80;;;6.40;99.90;;;;;;4897863;29;20524;-75
2023/02/01 07:26:04;;;;;;;21.07;4.87;;;6.40;99.90;;;;;;4896360;29;20886;-75
2023/02/01 07:28:35;;;;;;;13.37;3.83;;;6.40;99.90;;;;;;4880950;29;20535;-75
2023/02/01 07:31:08;;;;;;;10.52;3.95;;;6.40;99.90;;;;;;4881180;29;20509;-75
2023/02/01 07:33:34;;;;;;;16.23;4.10;;;6.40;99.90;;;;;;4896038;29;20257;-75
2023/02/01 07:36:03;;;;;;;10.15;3.28;;;6.50;99.90;;;;;;4865513;29;20306;-76
2023/02/01 07:38:32;;;;;;;12.43;4.18;;;6.50;99.90;;;;;;4880535;29;20222;-76
2023/02/01 07:41:02;;;;;;;13.73;3.95;;;6.40;99.90;;;;;;4896581;29;20175;-76
2023/02/01 07:43:31;;;;;;;12.98;3.65;;;6.50;99.90;;;;;;4897184;29;20180;-76
2023/02/01 07:46:04;;;;;;;18.60;3.97;;;6.50;99.90;;;;;;4897410;29;20752;-76
2023/02/01 07:48:33;;;;;;;13.55;4.43;;;6.50;99.90;;;;;;4896410;29;20194;-77
2023/02/01 07:51:07;;;;;;;8.20;3.70;;;6.40;99.90;;;;;;4847159;29;20581;-77
2023/02/01 07:53:35;;;;;;;14.47;4.97;;;6.40;99.90;;;;;;4877678;29;20577;-77
2023/02/01 07:56:14;;;;;;;15.93;4.53;;;6.40;99.90;;;;;;4883564;29;20462;-77
2023/02/01 07:58:40;;;;;;;13.93;4.30;;;6.50;99.90;;;;;;4895624;29;20470;-77
2023/02/01 08:01:22;;;;;;;15.00;4.10;;;6.50;99.90;;;;;;4897475;29;20885;-77
2023/02/01 08:03:56;;;;;;;19.57;4.60;;;6.50;99.90;;;;;;4897657;29;20189;-77
2023/02/01 08:06:23;;;;;;;9.80;3.60;;;6.50;99.90;;;;;;4896225;29;20448;-76
2023/02/01 08:08:53;;;;;;;11.50;4.45;;;6.40;99.90;;;;;;4903674;29;20424;-77
2023/02/01 08:11:22;;;;;;;13.50;3.50;;;6.50;99.90;;;;;;4877497;29;20167;-77
2023/02/01 08:13:50;;;;;;;15.93;4.07;;;6.50;99.90;;;;;;4862213;29;20208;-76
2023/02/01 08:16:20;;;;;;;10.17;3.70;;;6.50;99.90;;;;;;4890295;29;20463;-77
2023/02/01 08:18:54;;;;;;;13.43;4.60;;;6.50;99.90;;;;;;4894329;29;20451;-77
2023/02/01 08:21:23;;;;;;;10.75;4.43;;;6.50;99.90;;;;;;4909674;29;20530;-76
2023/02/01 08:23:50;;;;;;;12.55;4.35;;;6.50;99.90;;;;;;4894395;29;20269;-77
2023/02/01 08:26:22;;;;;;;14.63;3.65;;;6.50;99.90;;;;;;4894920;29;20719;-76
2023/02/01 08:28:51;;;;;;;14.15;3.45;;;6.50;99.90;;;;;;4897032;29;20175;-76
2023/02/01 08:31:19;;;;;;;15.07;4.38;;;6.50;99.90;;;;;;4896803;29;20213;-77
2023/02/01 08:33:50;;;;;;;10.93;4.07;;;6.50;99.90;;;;;;4909997;29;20199;-77
2023/02/01 08:36:19;;;;;;;12.90;4.37;;;6.50;99.90;;;;;;4879351;29;20218;-76
2023/02/01 08:38:48;;;;;;;10.50;3.75;;;6.50;99.90;;;;;;4895071;29;20473;-77
2023/02/01 08:41:16;;;;;;;12.52;3.90;;;6.50;99.90;;;;;;4896796;29;20166;-76
2023/02/01 08:43:45;;;;;;;10.13;4.25;;;6.50;99.90;;;;;;4879548;29;20179;-76
2023/02/01 08:46:11;;;;;;;11.15;3.90;;;6.50;99.90;;;;;;4909650;29;20669;-76
2023/02/01 08:48:38;;;;;;;12.70;4.32;;;6.50;99.90;;;;;;4893541;29;20195;-77
2023/02/01 08:51:11;;;;;;;14.77;4.03;;;6.50;99.90;;;;;;4909399;29;20206;-76
2023/02/01 08:53:42;;;;;;;20.15;4.40;;;6.50;99.90;;;;;;4878209;29;20289;-77
2023/02/01 08:56:11;;;;;;;17.95;5.05;;;6.50;99.90;;;;;;4892914;29;20209;-77
2023/02/01 08:58:37;;;;;;;18.38;4.95;;;6.50;99.90;;;;;;4906676;29;20218;-77
2023/02/01 09:01:12;;;;;;;14.70;4.18;;;6.50;99.90;;;;;;4896055;29;20645;-77
2023/02/01 09:03:38;;;;;;;13.32;3.47;;;6.50;99.90;;;;;;4896046;29;20822;-77
2023/02/01 09:06:09;;;;;;;11.57;4.85;;;6.50;99.90;;;;;;4880058;29;20625;-77
2023/02/01 09:08:39;;;;;;;7.38;3.97;;;6.50;99.90;;;;;;4878609;29;20210;-77
2023/02/01 09:11:15;;;;;;;10.77;3.75;;;6.50;99.90;;;;;;4897931;29;20207;-76
2023/02/01 09:13:43;;;;;;;16.73;4.43;;;6.50;99.90;;;;;;4911968;29;20244;-76
2023/02/01 09:16:12;;;;;;;16.33;4.78;;;6.50;99.90;;;;;;4898948;29;20567;-76
2023/02/01 09:18:40;;;;;;;13.23;3.80;;;6.60;99.90;;;;;;4900267;29;20198;-77
2023/02/01 09:21:07;;;;;;;9.93;3.60;;;6.60;99.90;;;;;;4901883;29;20533;-77
2023/02/01 09:23:34;;;;;;;15.18;5.30;;;6.60;99.90;;;;;;4900172;29;20455;-76
2023/02/01 09:26:07;;;;;;;14.07;4.40;;;6.60;99.90;;;;;;4906401;29;20212;-76
2023/02/01 09:28:34;;;;;;;14.40;4.63;;;6.60;99.90;;;;;;4932498;29;20724;-76
2023/02/01 09:31:03;;;;;;;12.93;4.00;;;6.60;99.90;;;;;;4913007;29;20223;-77
2023/02/01 09:33:29;;;;;;;17.40;4.40;;;6.60;99.90;;;;;;4900043;29;20508;-77
2023/02/01 09:36:02;;;;;;;11.85;4.70;;;6.60;99.90;;;;;;4902636;29;20212;-76
2023/02/01 09:38:29;;;;;;;12.60;4.85;;;6.60;99.90;;;;;;4879946;29;20203;-76
2023/02/01 09:40:58;;;;;;;17.42;5.18;;;6.60;99.90;;;;;;4881529;29;20651;-77
2023/02/01 09:43:31;;;;;;;12.30;5.07;;;6.60;99.90;;;;;;4917775;29;20219;-77
2023/02/01 09:46:28;;;;;;;13.48;5.50;;;6.60;99.90;;;;;;4903549;29;20700;-77
2023/02/01 09:48:58;;;;;;;18.23;5.57;;;6.60;99.90;;;;;;4894865;29;20221;-76
2023/02/01 09:51:32;;;;;;;17.77;4.53;;;6.60;99.90;;;;;;4904137;29;20448;-77
2023/02/01 09:53:58;;;;;;;13.80;5.25;;;6.60;99.90;;;;;;4918042;29;20217;-76
2023/02/01 09:56:36;;;;;;;14.57;4.57;;;6.60;99.90;;;;;;4884652;29;20249;-77
2023/02/01 09:59:19;;;;;;;15.30;5.22;;;6.60;99.90;;;;;;4899894;29;20493;-77
2023/02/01 10:01:47;;;;;;;15.93;4.97;;;6.60;99.90;;;;;;4904987;29;20234;-77
2023/02/01 10:04:16;;;;;;;12.07;4.70;;;6.60;99.90;;;;;;4899364;29;20423;-77
2023/02/01 10:06:50;;;;;;;31.35;5.93;;;6.60;99.90;;;;;;4899169;29;20512;-77
2023/02/01 10:09:35;;;;;;;9.93;4.60;;;6.70;99.90;;;;;;4898218;29;20292;-77
2023/02/01 10:12:36;;;;;;;18.40;4.70;;;6.70;99.90;;;;;;4882623;29;20214;-77
2023/02/01 10:15:17;;;;;;;17.23;4.43;;;6.70;99.90;;;;;;4911281;29;20222;-76
2023/02/01 10:17:55;;;;;;;15.80;5.00;;;6.70;99.90;;;;;;4898127;29;20242;-77
2023/02/01 10:20:39;;;;;;;12.80;5.65;;;6.70;99.90;;;;;;4884791;29;20195;-77
2023/02/01 10:23:20;;;;;;;18.15;4.65;;;6.70;99.90;;;;;;4900573;29;20819;-76
2023/02/01 10:26:04;;;;;;;13.43;5.10;;;6.70;99.90;;;;;;4882695;29;20704;-77
2023/02/01 10:28:34;;;;;;;14.50;4.70;;;6.70;99.90;;;;;;4904441;29;20238;-77
2023/02/01 10:31:03;;;;;;;11.47;4.57;;;6.70;99.90;;;;;;4897326;29;20562;-76
2023/02/01 10:33:35;;;;;;;8.18;4.05;;;6.70;99.90;;;;;;4881988;29;20463;-77
2023/02/01 10:36:11;;;;;;;12.90;4.85;;;6.70;99.90;;;;;;4897786;29;20353;-75
2023/02/01 10:38:37;;;;;;;10.27;4.18;;;6.70;99.90;;;;;;4882055;29;20210;-74
2023/02/01 10:41:16;;;;;;;19.85;4.60;;;6.80;99.90;;;;;;4897231;29;20203;-75
2023/02/01 10:43:55;;;;;;;12.07;4.65;;;6.80;99.90;;;;;;4897608;29;20186;-74
2023/02/01 10:46:30;;;;;;;13.32;4.50;;;6.80;99.90;;;;;;4902443;29;20206;-74
2023/02/01 10:49:02;;;;;;;16.40;5.00;;;6.80;99.90;;;;;;4897794;29;20554;-74
2023/02/01 10:51:58;;;;;;;10.57;4.00;;;6.80;99.90;;;;;;4890742;29;20191;-74
2023/02/01 10:54:37;;;;;;;16.35;5.63;;;6.80;99.90;;;;;;4915903;29;20426;-74
2023/02/01 10:57:19;;;;;;;11.27;5.60;;;6.80;99.90;;;;;;4911374;29;20277;-74
2023/02/01 10:59:45;;;;;;;11.07;3.97;;;6.80;99.90;;;;;;4898893;29;20302;-74
2023/02/01 11:02:28;;;;;;;9.37;4.50;;;6.80;99.90;;;;;;4906698;29;20297;-74
2023/02/01 11:05:09;;;;;;;15.48;4.30;;;6.80;99.90;;;;;;4881856;29;20853;-74
2023/02/01 11:07:38;;;;;;;11.95;4.82;;;6.80;99.90;;;;;;4916194;29;20703;-74
2023/02/01 11:10:38;;;;;;;12.38;4.32;;;6.80;99.90;;;;;;4915961;29;20163;-74
2023/02/01 11:13:12;;;;;;;12.43;4.30;;;6.90;99.90;;;;;;4878767;29;20310;-74
2023/02/01 11:15:42;;;;;;;14.93;4.43;;;6.80;99.90;;;;;;4900261;29;20572;-74
2023/02/01 11:18:26;;;;;;;13.83;5.10;;;6.90;99.90;;;;;;4899873;29;20482;-74
2023/02/01 11:20:54;;;;;;;12.43;4.32;;;6.90;99.90;;;;;;4911275;29;20448;-74
2023/02/01 11:23:26;;;;;;;12.35;4.20;;;6.90;99.90;;;;;;4914126;29;20217;-74
2023/02/01 11:25:58;;;;;;;16.17;4.30;;;6.90;99.90;;;;;;4911868;29;20198;-74
2023/02/01 11:28:33;;;;;;;13.13;5.03;;;6.90;99.90;;;;;;4910612;29;20435;-74
2023/02/01 11:31:03;;;;;;;10.27;3.87;;;6.90;99.90;;;;;;4903126;29;20466;-74
2023/02/01 11:33:34;;;;;;;14.55;4.35;;;6.90;99.90;;;;;;4912136;29;20474;-74
2023/02/01 11:36:20;;;;;;;11.13;3.93;;;6.90;99.90;;;;;;4915557;29;20710;-74
2023/02/01 11:39:09;;;;;;;13.60;4.03;;;6.90;99.90;;;;;;4915663;29;20478;-74
2023/02/01 11:41:40;;;;;;;8.00;4.23;;;6.90;99.90;;;;;;4909383;29;20439;-74
2023/02/01 11:44:20;;;;;;;11.20;5.40;;;6.90;99.90;;;;;;4881108;29;20451;-74
2023/02/01 11:46:46;;;;;;;10.50;4.33;;;7.00;99.90;;;;;;4896295;29;20202;-74
2023/02/01 11:49:25;;;;;;;12.23;4.20;;;7.00;99.90;;;;;;4897525;29;20463;-74
2023/02/01 11:52:18;;;;;;;13.47;3.97;;;7.00;99.90;;;;;;4897406;29;20270;-74
2023/02/01 11:54:58;;;;;;;13.80;3.93;;;7.00;99.90;;;;;;4881254;29;20436;-74
2023/02/01 11:57:43;;;;;;;13.48;5.00;;;7.00;99.90;;;;;;4887729;29;20448;-75
2023/02/01 12:00:30;;;;;;;9.67;4.43;;;7.00;99.90;;;;;;4893055;29;20183;-75
2023/02/01 12:03:15;;;;;;;13.27;4.65;;;7.00;99.90;;;;;;4878726;29;20524;-74
2023/02/01 12:06:17;;;;;;;9.82;4.25;;;7.00;99.90;;;;;;4893324;29;20200;-76
2023/02/01 12:09:00;;;;;;;13.95;4.50;;;7.00;99.90;;;;;;4896107;29;20214;-79
2023/02/01 12:11:44;;;;;;;13.47;4.67;;;7.00;99.90;;;;;;4911813;29;20194;-74
2023/02/01 12:14:40;;;;;;;16.10;4.77;;;7.00;99.90;;;;;;4895841;29;20455;-75
2023/02/01 12:17:15;;;;;;;12.38;4.70;;;7.00;99.90;;;;;;4895765;29;20430;-74
2023/02/01 12:20:03;;;;;;;8.38;4.18;;;7.10;99.90;;;;;;4892944;29;20209;-75
2023/02/01 12:22:31;;;;;;;9.60;4.70;;;7.00;99.90;;;;;;4892293;29;20278;-75
2023/02/01 12:25:09;;;;;;;13.18;4.93;;;7.00;99.90;;;;;;4888989;29;21026;-74
2023/02/01 12:27:46;;;;;;;12.70;4.15;;;7.10;99.90;;;;;;4902803;29;20677;-75
2023/02/01 12:30:35;;;;;;;11.67;4.93;;;7.10;99.90;;;;;;4909036;29;20192;-75
2023/02/01 12:33:22;;;;;;;17.03;4.50;;;7.10;99.90;;;;;;4913632;29;20439;-75
2023/02/01 12:36:11;;;;;;;11.47;4.20;;;7.10;99.90;;;;;;4896269;29;20442;-75
2023/02/01 12:38:45;;;;;;;12.10;4.03;;;7.10;99.90;;;;;;4896811;29;20892;-75
2023/02/01 12:41:30;;;;;;;16.70;5.77;;;7.10;99.90;;;;;;4892849;29;20232;-75
2023/02/01 12:44:12;;;;;;;21.90;4.90;;;7.10;99.90;;;;;;4888329;29;20451;-75
2023/02/01 12:47:11;;;;;;;11.88;4.65;;;7.10;99.90;;;;;;4891831;29;21040;-75
2023/02/01 12:50:00;;;;;;;16.38;5.20;;;7.10;99.90;;;;;;4905820;29;20398;-75
2023/02/01 12:52:35;;;;;;;11.03;4.23;;;7.10;99.90;;;;;;4913211;29;20198;-75
2023/02/01 12:55:19;;;;;;;11.50;3.93;;;7.10;99.90;;;;;;4892918;29;20864;-75
2023/02/01 12:57:50;;;;;;;11.50;3.97;;;7.10;99.90;;;;;;4859079;29;20440;-75
2023/02/01 13:00:43;;;;;;;14.37;4.47;;;7.10;99.90;;;;;;4893454;29;20447;-75
2023/02/01 13:03:27;;;;;;;15.67;4.50;;;7.10;99.90;;;;;;4891693;29;20460;-75
2023/02/01 13:06:23;;;;;;;14.37;4.83;;;7.20;99.90;;;;;;4876737;29;21017;-75
2023/02/01 13:09:01;;;;;;;21.17;4.53;;;7.10;99.90;;;;;;4858158;29;20478;-75
2023/02/01 13:11:33;;;;;;;12.20;4.27;;;7.10;99.90;;;;;;4874300;29;20456;-75
2023/02/01 13:14:23;;;;;;;14.47;3.87;;;7.20;99.90;;;;;;4892091;29;20966;-75
2023/02/01 13:16:53;;;;;;;8.43;3.77;;;7.20;99.90;;;;;;4894558;29;20494;-75
2023/02/01 13:19:41;;;;;;;14.10;4.53;;;7.10;99.90;;;;;;4893517;29;20468;-75
2023/02/01 13:22:23;;;;;;;9.02;4.18;;;7.20;99.90;;;;;;4892172;29;20439;-75
2023/02/01 13:25:01;;;;;;;17.00;4.03;;;7.20;99.90;;;;;;4893147;29;20582;-75
2023/02/01 13:27:32;;;;;;;7.37;4.13;;;7.20;99.90;;;;;;4876857;29;20984;-75
2023/02/01 13:30:20;;;;;;;9.97;4.00;;;7.20;99.90;;;;;;4907712;29;20947;-75
2023/02/01 13:32:57;;;;;;;13.13;4.50;;;7.20;99.90;;;;;;4898974;29;20446;-75
2023/02/01 13:35:26;;;;;;;10.83;3.70;;;7.20;99.90;;;;;;4911708;29;20454;-75
2023/02/01 13:37:55;;;;;;;12.80;3.58;;;7.20;99.90;;;;;;4880517;29;20488;-75
2023/02/01 13:40:51;;;;;;;16.40;4.40;;;7.20;99.90;;;;;;4912253;29;20625;-75
2023/02/01 13:43:29;;;;;;;10.00;3.17;;;7.20;99.90;;;;;;4880276;29;20438;-74